Weather at Chita-Kadala Airport

Public forecast

Using degrees Celsius for public forecast. Weather courtesy of forecast.io.

Current aviation weather report (METAR) for Chita-Kadala Airport

Retrieved 2020/10/23 20:30 UTC (3 minutes ago):

UIAA 232030Z VRB01MPS 9999 NSC M08/M09 Q1017 R29/70D NOSIG RMK QFE704/0939

Aviation forecast (TAF) for Chita-Kadala Airport

Retrieved 2020/10/23 21:21 UTC (0 seconds ago):

TAF UIAA 232000Z 2321/2421 32003MPS 9999 SCT040CB TEMPO 2321/2401 3100 BR